createdAt,value
2022-11-20T00:02:37.107Z,87.83
2022-11-20T00:12:37.331Z,87.66
2022-11-20T00:22:37.559Z,86.74
2022-11-20T00:32:39.448Z,90.12
2022-11-20T00:42:37.957Z,88.61
2022-11-20T00:52:42.513Z,87.65
2022-11-20T01:02:38.146Z,85.54
2022-11-20T01:12:38.399Z,88.12
2022-11-20T01:22:38.700Z,89.81
2022-11-20T01:32:38.823Z,90.74
2022-11-20T01:42:38.877Z,90.74
2022-11-20T01:52:39.124Z,92.38
2022-11-20T02:02:39.350Z,93.30
2022-11-20T02:12:39.602Z,93.41
2022-11-20T02:22:39.826Z,93.51
2022-11-20T02:32:40.078Z,93.20
2022-11-20T02:42:40.315Z,86.61
2022-11-20T02:52:40.554Z,90.78
2022-11-20T03:02:40.771Z,92.33
2022-11-20T03:12:41.117Z,92.38
2022-11-20T03:22:41.156Z,92.33
2022-11-20T03:32:41.390Z,88.51
2022-11-20T03:42:41.629Z,87.68
2022-11-20T03:52:41.989Z,87.37
2022-11-20T04:02:42.014Z,78.11
2022-11-20T04:12:42.335Z,79.14
2022-11-20T04:22:42.371Z,75.56
2022-11-20T04:32:44.641Z,77.97
2022-11-20T04:42:42.681Z,80.24
2022-11-20T04:52:43.090Z,85.44
2022-11-20T05:02:43.119Z,86.51
2022-11-20T05:12:43.448Z,84.59
2022-11-20T05:22:43.550Z,84.38
2022-11-20T05:32:43.921Z,83.93
2022-11-20T05:42:43.950Z,85.31
2022-11-20T05:52:44.086Z,85.41
2022-11-20T06:02:44.355Z,81.80
2022-11-20T06:12:44.457Z,80.69
2022-11-20T06:22:44.681Z,82.79
2022-11-20T06:32:47.245Z,85.55
2022-11-20T06:42:45.082Z,83.39
2022-11-20T06:52:45.395Z,82.56
2022-11-20T07:02:45.413Z,83.39
2022-11-20T07:12:45.670Z,88.12
2022-11-20T07:22:45.891Z,90.29
2022-11-20T07:32:49.308Z,90.66
2022-11-20T07:42:46.343Z,90.25
2022-11-20T07:52:46.627Z,89.01
2022-11-20T08:02:46.631Z,87.25
2022-11-20T08:12:46.997Z,86.34
2022-11-20T08:22:47.018Z,83.48
2022-11-20T08:32:47.273Z,84.27
2022-11-20T08:42:47.496Z,81.67
2022-11-20T08:52:47.836Z,81.71
2022-11-20T09:02:47.855Z,79.75
2022-11-20T09:12:48.114Z,78.86
2022-11-20T09:22:48.347Z,78.90
2022-11-20T09:32:48.675Z,78.07
2022-11-20T09:42:48.700Z,76.45
2022-11-20T09:52:48.943Z,74.08
2022-11-20T10:02:49.160Z,76.25
2022-11-20T10:12:49.423Z,77.10
2022-11-20T10:22:49.638Z,72.09
2022-11-20T10:32:50.917Z,74.77
2022-11-20T10:42:49.945Z,73.44
2022-11-20T10:52:50.255Z,75.29
2022-11-20T11:02:50.284Z,71.28
2022-11-20T11:12:50.634Z,68.37
2022-11-20T11:22:50.662Z,67.41
2022-11-20T11:32:50.996Z,62.65
2022-11-20T11:42:51.023Z,61.92
2022-11-20T11:52:51.489Z,61.61
2022-11-20T12:02:51.424Z,62.12
2022-11-20T12:12:51.622Z,60.89
2022-11-20T12:22:51.689Z,58.81
2022-11-20T12:32:52.999Z,57.92
2022-11-20T12:42:52.339Z,56.99
2022-11-20T12:52:52.317Z,59.68
2022-11-20T13:02:53.226Z,57.33
2022-11-20T13:12:52.796Z,59.58
2022-11-20T13:22:52.705Z,64.73
2022-11-20T13:32:53.094Z,64.57
2022-11-20T13:42:53.174Z,62.36
2022-11-20T13:52:53.540Z,62.35
2022-11-20T14:02:53.494Z,65.30
2022-11-20T14:12:55.490Z,65.64
2022-11-20T14:22:53.848Z,64.03
2022-11-20T14:32:54.111Z,67.14
2022-11-20T14:42:54.363Z,67.71
2022-11-20T14:52:54.559Z,68.54
2022-11-20T15:02:54.571Z,68.74
2022-11-20T15:12:54.906Z,70.32
2022-11-20T15:22:55.078Z,74.95
2022-11-20T15:32:55.189Z,73.81
2022-11-20T15:42:55.064Z,74.40
2022-11-20T15:52:55.666Z,73.05
2022-11-20T16:02:55.662Z,74.77
2022-11-20T16:12:55.692Z,76.70
2022-11-20T16:22:56.948Z,76.46
2022-11-20T16:32:56.179Z,75.87
2022-11-20T16:42:56.957Z,74.26
2022-11-20T16:52:57.591Z,74.46
2022-11-20T17:02:56.691Z,73.12
2022-11-20T17:13:02.441Z,72.91
2022-11-20T17:22:56.785Z,75.98
2022-11-20T17:32:57.149Z,69.17
2022-11-20T17:42:57.274Z,68.10
2022-11-20T17:53:10.114Z,70.92
2022-11-20T18:02:57.663Z,70.40
2022-11-20T18:12:58.638Z,70.40
2022-11-20T18:22:58.047Z,71.02
2022-11-20T18:32:59.260Z,72.81
2022-11-20T18:42:58.542Z,73.05
2022-11-20T18:52:58.615Z,73.05
2022-11-20T19:02:58.519Z,73.16
2022-11-20T19:12:58.800Z,72.19
2022-11-20T19:22:59.454Z,71.67
2022-11-20T19:32:59.578Z,72.61
2022-11-20T19:42:59.552Z,73.22
2022-11-20T19:52:59.801Z,74.40
2022-11-20T20:02:59.996Z,75.22
2022-11-20T20:13:00.270Z,74.29
2022-11-20T20:23:00.412Z,74.19
2022-11-20T20:33:00.638Z,74.05
2022-11-20T20:43:00.795Z,75.39
2022-11-20T20:53:01.743Z,81.90
2022-11-20T21:03:01.106Z,82.66
2022-11-20T21:13:01.364Z,86.21
2022-11-20T21:23:01.316Z,86.94
2022-11-20T21:33:01.813Z,88.22
2022-11-20T21:43:01.864Z,80.39
2022-11-20T21:53:02.187Z,78.18
2022-11-20T22:03:02.227Z,79.11
2022-11-20T22:13:02.631Z,80.46
2022-11-20T22:23:02.819Z,81.90
2022-11-20T22:33:03.009Z,83.59
2022-11-20T22:43:03.037Z,84.63
2022-11-20T22:53:03.378Z,86.73
2022-11-20T23:03:03.488Z,86.32
2022-11-20T23:13:03.639Z,88.07
2022-11-20T23:23:03.666Z,90.77
2022-11-20T23:33:04.023Z,92.77
2022-11-20T23:43:04.055Z,92.19
2022-11-20T23:53:04.402Z,93.12
